createdAt,value
2018-04-14T00:01:54.090Z,9.30
2018-04-14T00:04:27.582Z,9.30
2018-04-14T00:07:00.513Z,9.30
2018-04-14T00:09:34.863Z,9.20
2018-04-14T00:12:08.350Z,9.20
2018-04-14T00:14:42.073Z,9.20
2018-04-14T00:17:16.358Z,9.10
2018-04-14T00:19:49.592Z,9.10
2018-04-14T00:22:22.819Z,9.10
2018-04-14T00:24:55.905Z,9.10
2018-04-14T00:27:28.463Z,9.10
2018-04-14T00:30:00.967Z,9.00
2018-04-14T00:32:33.461Z,9.10
2018-04-14T00:35:06.742Z,9.00
2018-04-14T00:37:41.459Z,9.00
2018-04-14T00:40:14.270Z,9.00
2018-04-14T00:42:48.589Z,9.00
2018-04-14T00:45:22.133Z,9.00
2018-04-14T00:47:54.810Z,9.00
2018-04-14T00:50:27.221Z,8.90
2018-04-14T00:53:18.213Z,8.90
2018-04-14T00:55:51.489Z,8.90
2018-04-14T00:58:23.979Z,8.90
2018-04-14T01:00:56.783Z,8.90
2018-04-14T01:03:30.919Z,8.70
2018-04-14T01:06:04.420Z,8.70
2018-04-14T01:08:36.949Z,8.70
2018-04-14T01:11:10.103Z,8.70
2018-04-14T01:13:43.292Z,8.60
2018-04-14T01:16:16.163Z,8.60
2018-04-14T01:18:48.779Z,8.60
2018-04-14T01:21:21.881Z,8.60
2018-04-14T01:24:01.900Z,8.60
2018-04-14T01:26:34.374Z,8.50
2018-04-14T01:29:06.954Z,8.50
2018-04-14T01:31:39.699Z,8.50
2018-04-14T01:34:12.146Z,8.40
2018-04-14T01:36:44.666Z,8.40
2018-04-14T01:39:18.185Z,8.40
2018-04-14T01:41:51.432Z,8.30
2018-04-14T01:44:31.281Z,8.30
2018-04-14T01:47:03.673Z,8.20
2018-04-14T01:49:36.107Z,8.20
2018-04-14T01:52:08.534Z,8.10
2018-04-14T01:54:40.970Z,8.10
2018-04-14T01:57:21.401Z,8.00
2018-04-14T01:59:53.821Z,8.00
2018-04-14T02:02:26.443Z,8.00
2018-04-14T02:04:58.878Z,7.90
2018-04-14T02:07:32.220Z,7.90
2018-04-14T02:10:04.794Z,7.80
2018-04-14T02:12:37.510Z,7.70
2018-04-14T02:15:10.691Z,7.70
2018-04-14T02:17:43.282Z,7.70
2018-04-14T02:20:15.925Z,7.60
2018-04-14T02:22:49.304Z,7.50
2018-04-14T02:25:22.173Z,7.50
2018-04-14T02:27:55.147Z,7.50
2018-04-14T02:30:27.645Z,7.40
2018-04-14T02:33:01.309Z,7.40
2018-04-14T02:35:34.110Z,7.40
2018-04-14T02:38:06.695Z,7.30
2018-04-14T02:40:40.987Z,7.30
2018-04-14T02:43:14.507Z,7.30
2018-04-14T02:45:47.268Z,7.30
2018-04-14T02:48:20.801Z,7.30
2018-04-14T02:50:53.669Z,7.30
2018-04-14T02:53:26.073Z,7.30
2018-04-14T02:55:58.814Z,7.40
2018-04-14T02:58:32.016Z,7.40
2018-04-14T03:01:05.435Z,7.40
2018-04-14T03:03:38.191Z,7.30
2018-04-14T03:06:12.307Z,7.30
2018-04-14T03:08:44.903Z,7.30
2018-04-14T03:11:17.553Z,7.30
2018-04-14T03:13:50.876Z,7.30
2018-04-14T03:16:23.837Z,7.20
2018-04-14T03:18:57.155Z,7.30
2018-04-14T03:21:30.610Z,7.20
2018-04-14T03:24:03.385Z,7.30
2018-04-14T03:26:35.808Z,7.30
2018-04-14T03:29:08.568Z,7.30
2018-04-14T03:31:41.131Z,7.30
2018-04-14T03:34:13.933Z,7.30
2018-04-14T03:36:46.460Z,7.30
2018-04-14T03:39:19.065Z,7.30
2018-04-14T03:41:51.587Z,7.30
2018-04-14T03:44:24.345Z,7.30
2018-04-14T03:46:57.590Z,7.20
2018-04-14T03:49:31.535Z,7.20
2018-04-14T03:52:05.034Z,7.20
2018-04-14T03:54:37.933Z,7.10
2018-04-14T03:57:10.382Z,7.10
2018-04-14T03:59:43.103Z,7.10
2018-04-14T04:02:16.330Z,7.10
2018-04-14T04:04:49.035Z,7.00
2018-04-14T04:07:21.629Z,7.00
2018-04-14T04:09:54.970Z,7.00
2018-04-14T04:12:28.194Z,7.00
2018-04-14T04:15:00.836Z,7.00
2018-04-14T04:17:33.306Z,7.00
2018-04-14T04:23:45.285Z,6.90
2018-04-14T04:26:18.067Z,6.90
2018-04-14T04:28:50.483Z,6.90
2018-04-14T04:31:22.925Z,6.90
2018-04-14T04:33:55.553Z,6.90
2018-04-14T04:36:28.186Z,6.90
2018-04-14T04:39:01.471Z,6.90
2018-04-14T04:41:34.806Z,6.90
2018-04-14T04:44:08.099Z,7.00
2018-04-14T04:46:41.696Z,7.00
2018-04-14T04:49:15.613Z,7.10
2018-04-14T04:51:48.175Z,7.00
2018-04-14T04:54:20.774Z,7.10
2018-04-14T04:56:53.221Z,7.20
2018-04-14T04:59:25.735Z,7.20
2018-04-14T05:01:58.625Z,7.30
2018-04-14T05:04:31.441Z,7.30
2018-04-14T05:07:04.686Z,7.30
2018-04-14T05:09:38.464Z,7.40
2018-04-14T05:12:12.272Z,7.50
2018-04-14T05:14:45.459Z,7.50
2018-04-14T05:17:17.858Z,7.60
2018-04-14T05:19:50.961Z,7.70
2018-04-14T05:22:24.103Z,7.80
2018-04-14T05:24:57.200Z,8.00
2018-04-14T05:27:30.048Z,8.20
2018-04-14T05:30:03.146Z,8.40
2018-04-14T05:32:37.036Z,9.00
2018-04-14T05:35:10.936Z,9.50
2018-04-14T05:37:44.028Z,9.50
2018-04-14T05:40:17.322Z,11.10
2018-04-14T05:42:49.984Z,11.10
2018-04-14T05:45:23.341Z,12.10
2018-04-14T05:47:56.687Z,13.90
2018-04-14T05:50:30.068Z,14.50
2018-04-14T05:53:02.683Z,14.50
2018-04-14T05:55:35.962Z,15.60
2018-04-14T05:58:09.492Z,16.30
2018-04-14T06:00:42.181Z,16.30
2018-04-14T06:03:14.655Z,17.00
2018-04-14T06:05:48.779Z,18.30
2018-04-14T06:08:21.658Z,18.20
2018-04-14T06:10:54.087Z,18.90
2018-04-14T06:13:27.325Z,19.70
2018-04-14T06:16:00.887Z,20.00
2018-04-14T06:18:34.488Z,20.30
2018-04-14T06:21:08.035Z,20.40
2018-04-14T06:23:40.676Z,20.40
2018-04-14T06:26:13.216Z,20.70
2018-04-14T06:28:45.789Z,20.70
2018-04-14T06:31:18.379Z,20.80
2018-04-14T06:33:51.570Z,21.00
2018-04-14T06:36:24.356Z,21.00
2018-04-14T06:38:56.944Z,21.10
2018-04-14T06:41:29.425Z,21.10
2018-04-14T06:44:03.060Z,21.30
2018-04-14T06:46:35.923Z,21.30
2018-04-14T06:49:09.987Z,21.60
2018-04-14T06:51:42.718Z,21.50
2018-04-14T06:54:16.221Z,21.50
2018-04-14T06:56:48.830Z,21.60
2018-04-14T06:59:22.145Z,21.90
2018-04-14T07:01:54.725Z,21.90
2018-04-14T07:04:27.224Z,22.00
2018-04-14T07:07:00.517Z,22.10
2018-04-14T07:09:33.333Z,22.10
2018-04-14T07:12:05.688Z,22.20
2018-04-14T07:14:38.413Z,22.30
2018-04-14T07:17:11.740Z,22.30
2018-04-14T07:19:45.048Z,22.30
2018-04-14T07:22:17.785Z,22.30
2018-04-14T07:24:58.136Z,22.20
2018-04-14T07:27:32.118Z,22.30
2018-04-14T07:30:04.933Z,22.30
2018-04-14T07:32:38.605Z,22.40
2018-04-14T07:35:12.662Z,22.40
2018-04-14T07:37:46.394Z,22.30
2018-04-14T07:40:19.965Z,22.30
2018-04-14T07:42:52.656Z,22.30
2018-04-14T07:45:25.205Z,22.30
2018-04-14T07:47:58.176Z,22.40
2018-04-14T07:50:31.500Z,22.40
2018-04-14T07:53:04.109Z,22.50
2018-04-14T07:55:36.777Z,22.50
2018-04-14T07:58:09.314Z,22.50
2018-04-14T08:00:41.962Z,22.40
2018-04-14T08:03:14.519Z,22.40
2018-04-14T08:05:47.965Z,22.40
2018-04-14T08:08:21.342Z,22.50
2018-04-14T08:10:53.850Z,22.50
2018-04-14T08:13:27.235Z,22.60
2018-04-14T08:15:59.721Z,22.70
2018-04-14T08:18:32.416Z,22.60
2018-04-14T08:21:04.950Z,22.60
2018-04-14T08:23:37.499Z,22.60
2018-04-14T08:26:10.138Z,22.70
2018-04-14T08:28:44.195Z,23.00
2018-04-14T08:31:16.933Z,23.00
2018-04-14T08:33:51.005Z,23.30
2018-04-14T08:36:23.630Z,23.30
2018-04-14T08:38:56.886Z,23.40
2018-04-14T08:41:29.429Z,23.40
2018-04-14T08:44:02.094Z,23.60
2018-04-14T08:46:34.501Z,23.80
2018-04-14T08:49:08.215Z,23.90
2018-04-14T08:51:40.929Z,23.90
2018-04-14T08:54:13.673Z,23.70
2018-04-14T08:56:46.208Z,23.70
2018-04-14T08:59:18.759Z,23.70
2018-04-14T09:01:51.207Z,23.70
2018-04-14T09:04:24.378Z,23.60
2018-04-14T09:06:57.282Z,23.60
2018-04-14T09:09:30.429Z,23.30
2018-04-14T09:12:03.877Z,23.30
2018-04-14T09:14:36.564Z,23.30
2018-04-14T09:17:09.166Z,23.40
2018-04-14T09:19:41.579Z,23.60
2018-04-14T09:22:14.159Z,23.60
2018-04-14T09:24:46.529Z,23.30
2018-04-14T09:27:19.851Z,23.10
2018-04-14T09:29:52.665Z,23.10
2018-04-14T09:32:25.815Z,23.20
2018-04-14T09:34:58.589Z,23.20
2018-04-14T09:37:32.047Z,23.60
2018-04-14T09:40:04.780Z,23.60
2018-04-14T09:42:37.248Z,23.70
2018-04-14T09:45:09.662Z,23.70
2018-04-14T09:47:42.359Z,23.80
2018-04-14T09:50:14.965Z,23.70
2018-04-14T09:52:48.313Z,23.70
2018-04-14T09:55:21.218Z,23.70
2018-04-14T09:57:54.040Z,23.40
2018-04-14T10:00:26.425Z,23.30
2018-04-14T10:02:59.876Z,23.30
2018-04-14T10:05:32.528Z,23.50
2018-04-14T10:08:06.229Z,23.50
2018-04-14T10:10:38.981Z,23.40
2018-04-14T10:13:11.541Z,23.30
2018-04-14T10:15:45.715Z,23.10
2018-04-14T10:18:18.776Z,23.10
2018-04-14T10:20:51.161Z,23.20
2018-04-14T10:23:23.636Z,23.20
2018-04-14T10:25:56.421Z,23.30
2018-04-14T10:28:28.970Z,23.20
2018-04-14T10:31:01.539Z,23.20
2018-04-14T10:33:34.905Z,23.40
2018-04-14T10:36:07.377Z,23.50
2018-04-14T10:38:39.993Z,23.30
2018-04-14T10:41:13.452Z,23.00
2018-04-14T10:43:45.905Z,23.10
2018-04-14T10:46:19.226Z,23.00
2018-04-14T10:48:51.930Z,23.00
2018-04-14T10:51:24.367Z,23.10
2018-04-14T10:53:57.634Z,22.80
2018-04-14T10:56:31.311Z,22.80
2018-04-14T10:59:04.873Z,22.60
2018-04-14T11:01:38.300Z,22.30
2018-04-14T11:04:11.012Z,22.30
2018-04-14T11:06:43.763Z,22.00
2018-04-14T11:09:16.205Z,21.80
2018-04-14T11:11:49.538Z,21.60
2018-04-14T11:14:23.110Z,21.30
2018-04-14T11:16:56.783Z,21.20
2018-04-14T11:19:29.487Z,21.20
2018-04-14T11:22:01.923Z,21.10
2018-04-14T11:24:34.400Z,21.00
2018-04-14T11:27:06.976Z,20.90
2018-04-14T11:29:40.358Z,20.80
2018-04-14T11:32:13.787Z,20.80
2018-04-14T11:34:46.538Z,20.80
2018-04-14T11:37:26.132Z,20.70
2018-04-14T11:39:58.747Z,20.60
2018-04-14T11:42:32.947Z,20.40
2018-04-14T11:45:05.440Z,20.30
2018-04-14T11:47:38.018Z,20.30
2018-04-14T11:50:10.527Z,20.20
2018-04-14T11:52:44.005Z,20.10
2018-04-14T11:55:17.102Z,19.90
2018-04-14T11:57:49.968Z,19.90
2018-04-14T12:00:22.495Z,19.90
2018-04-14T12:02:54.923Z,19.90
2018-04-14T12:05:27.461Z,19.70
2018-04-14T12:08:00.128Z,19.70
2018-04-14T12:10:34.146Z,19.80
2018-04-14T12:13:07.056Z,19.70
2018-04-14T12:15:39.746Z,19.80
2018-04-14T12:18:12.186Z,19.80
2018-04-14T12:20:45.508Z,19.80
2018-04-14T12:23:18.334Z,19.80
2018-04-14T12:25:50.905Z,19.70
2018-04-14T12:28:23.418Z,19.80
2018-04-14T12:30:56.074Z,19.80
2018-04-14T12:33:28.751Z,19.70
2018-04-14T12:36:02.822Z,19.70
2018-04-14T12:38:35.765Z,19.60
2018-04-14T12:41:09.104Z,19.60
2018-04-14T12:43:42.015Z,19.50
2018-04-14T12:46:15.579Z,19.50
2018-04-14T12:48:48.860Z,19.50
2018-04-14T12:51:21.344Z,19.60
2018-04-14T12:53:54.711Z,19.50
2018-04-14T12:56:28.061Z,19.60
2018-04-14T12:59:01.375Z,19.60
2018-04-14T13:01:34.157Z,19.60
2018-04-14T13:04:06.673Z,19.60
2018-04-14T13:06:39.310Z,19.60
2018-04-14T13:09:12.579Z,19.60
2018-04-14T13:11:45.408Z,19.50
2018-04-14T13:14:17.981Z,19.60
2018-04-14T13:16:50.772Z,19.60
2018-04-14T13:19:23.868Z,19.60
2018-04-14T13:21:56.667Z,19.60
2018-04-14T13:24:30.127Z,19.60
2018-04-14T13:27:02.835Z,19.60
2018-04-14T13:29:35.374Z,19.60
2018-04-14T13:32:09.099Z,19.60
2018-04-14T13:34:42.537Z,19.50
2018-04-14T13:37:15.295Z,19.50
2018-04-14T13:39:48.003Z,19.60
2018-04-14T13:42:21.459Z,19.50
2018-04-14T13:44:54.493Z,19.50
2018-04-14T13:47:27.716Z,19.40
2018-04-14T13:50:00.682Z,19.40
2018-04-14T13:52:33.140Z,19.30
2018-04-14T13:55:06.437Z,19.20
2018-04-14T13:57:39.252Z,19.30
2018-04-14T14:00:12.208Z,19.20
2018-04-14T14:02:45.623Z,19.30
2018-04-14T14:05:18.840Z,19.30
2018-04-14T14:07:51.678Z,19.30
2018-04-14T14:10:24.318Z,19.30
2018-04-14T14:12:57.697Z,19.30
2018-04-14T14:15:31.811Z,19.20
2018-04-14T14:18:05.529Z,19.20
2018-04-14T14:20:38.272Z,19.20
2018-04-14T14:23:10.873Z,19.30
2018-04-14T14:25:43.368Z,19.30
2018-04-14T14:28:15.893Z,19.30
2018-04-14T14:30:48.288Z,19.30
2018-04-14T14:33:21.051Z,19.30
2018-04-14T14:35:53.635Z,19.30
2018-04-14T14:38:26.312Z,19.30
2018-04-14T14:41:00.463Z,19.30
2018-04-14T14:43:33.287Z,19.30
2018-04-14T14:46:05.737Z,19.30
2018-04-14T14:48:38.431Z,19.30
2018-04-14T14:51:10.933Z,19.20
2018-04-14T14:53:44.263Z,19.20
2018-04-14T14:56:16.965Z,19.20
2018-04-14T14:58:49.384Z,19.20
2018-04-14T15:01:21.818Z,19.20
2018-04-14T15:03:54.515Z,19.20
2018-04-14T15:06:27.012Z,19.10
2018-04-14T15:08:59.526Z,19.10
2018-04-14T15:11:32.157Z,19.10
2018-04-14T15:14:05.421Z,19.10
2018-04-14T15:16:37.971Z,19.00
2018-04-14T15:19:10.528Z,19.10
2018-04-14T15:21:43.114Z,19.00
2018-04-14T15:24:17.183Z,19.00
2018-04-14T15:26:49.948Z,19.00
2018-04-14T15:29:23.407Z,19.00
2018-04-14T15:31:56.173Z,19.00
2018-04-14T15:34:28.757Z,19.00
2018-04-14T15:37:01.227Z,19.00
2018-04-14T15:39:33.805Z,19.00
2018-04-14T15:42:06.225Z,18.90
2018-04-14T15:44:38.861Z,18.90
2018-04-14T15:47:11.349Z,18.90
2018-04-14T15:49:45.603Z,18.80
2018-04-14T15:52:18.179Z,18.90
2018-04-14T15:54:51.570Z,18.80
2018-04-14T15:57:24.023Z,18.70
2018-04-14T15:59:57.460Z,18.70
2018-04-14T16:02:30.909Z,18.60
2018-04-14T16:05:03.674Z,18.60
2018-04-14T16:07:36.963Z,18.60
2018-04-14T16:10:09.747Z,18.60
2018-04-14T16:12:43.056Z,18.60
2018-04-14T16:15:15.993Z,18.60
2018-04-14T16:17:48.500Z,18.60
2018-04-14T16:20:21.281Z,18.60
2018-04-14T16:22:53.880Z,18.50
2018-04-14T16:25:27.390Z,18.50
2018-04-14T16:28:00.855Z,18.50
2018-04-14T16:30:33.346Z,18.50
2018-04-14T16:33:05.812Z,18.50
2018-04-14T16:35:40.075Z,18.50
2018-04-14T16:38:12.736Z,18.50
2018-04-14T16:40:45.184Z,18.50
2018-04-14T16:43:17.787Z,18.50
2018-04-14T16:45:50.264Z,18.40
2018-04-14T16:48:30.573Z,18.40
2018-04-14T16:51:03.213Z,18.40
2018-04-14T16:53:35.941Z,18.40
2018-04-14T16:56:08.688Z,18.30
2018-04-14T16:58:41.569Z,18.30
2018-04-14T17:01:14.181Z,18.30
2018-04-14T17:03:46.733Z,18.30
2018-04-14T17:06:19.556Z,18.30
2018-04-14T17:08:52.092Z,18.30
2018-04-14T17:11:25.528Z,18.20
2018-04-14T17:14:05.205Z,18.10
2018-04-14T17:16:37.773Z,18.10
2018-04-14T17:19:18.069Z,18.00
2018-04-14T17:21:51.038Z,17.90
2018-04-14T17:24:23.673Z,17.90
2018-04-14T17:26:56.125Z,17.80
2018-04-14T17:29:28.958Z,17.80
2018-04-14T17:32:01.451Z,17.80
2018-04-14T17:34:34.027Z,17.70
2018-04-14T17:37:08.253Z,17.60
2018-04-14T17:39:41.743Z,17.60
2018-04-14T17:42:14.576Z,17.60
2018-04-14T17:44:47.908Z,17.60
2018-04-14T17:47:21.293Z,17.50
2018-04-14T17:49:54.176Z,17.50
2018-04-14T17:52:28.205Z,17.40
2018-04-14T17:55:02.718Z,17.30
2018-04-14T17:57:35.808Z,17.30
2018-04-14T18:00:08.224Z,17.30
2018-04-14T18:02:41.009Z,17.20
2018-04-14T18:05:14.260Z,17.20
2018-04-14T18:07:46.941Z,17.20
2018-04-14T18:10:20.091Z,17.10
2018-04-14T18:12:53.711Z,17.10
2018-04-14T18:15:27.016Z,17.00
2018-04-14T18:17:59.747Z,16.90
2018-04-14T18:20:33.144Z,16.90
2018-04-14T18:23:05.978Z,16.90
2018-04-14T18:25:39.233Z,16.90
2018-04-14T18:28:12.813Z,16.80
2018-04-14T18:30:45.635Z,16.70
2018-04-14T18:33:19.133Z,16.70
2018-04-14T18:35:51.633Z,16.70
2018-04-14T18:38:24.393Z,16.60
2018-04-14T18:40:57.008Z,16.70
2018-04-14T18:43:30.454Z,16.60
2018-04-14T18:46:03.723Z,16.50
2018-04-14T18:48:36.548Z,16.50
2018-04-14T18:51:09.018Z,16.50
2018-04-14T18:53:43.081Z,16.40
2018-04-14T18:56:15.933Z,16.40
2018-04-14T18:58:49.440Z,16.30
2018-04-14T19:01:22.215Z,16.30
2018-04-14T19:03:54.969Z,16.30
2018-04-14T19:06:27.399Z,16.20
2018-04-14T19:09:00.032Z,16.20
2018-04-14T19:11:34.147Z,16.10
2018-04-14T19:14:07.336Z,16.10
2018-04-14T19:16:40.570Z,16.10
2018-04-14T19:19:13.220Z,16.10
2018-04-14T19:21:45.794Z,16.00
2018-04-14T19:24:18.629Z,16.00
2018-04-14T19:26:51.819Z,15.90
2018-04-14T19:29:24.723Z,15.90
2018-04-14T19:31:57.555Z,15.90
2018-04-14T19:34:31.412Z,15.90
2018-04-14T19:37:04.888Z,15.80
2018-04-14T19:39:38.021Z,15.80
2018-04-14T19:42:11.013Z,15.70
2018-04-14T19:44:44.377Z,15.70
2018-04-14T19:47:16.928Z,15.70
2018-04-14T19:49:49.414Z,15.60
2018-04-14T19:52:23.455Z,15.50
2018-04-14T19:54:56.528Z,15.50
2018-04-14T19:57:29.721Z,15.40
2018-04-14T20:00:03.223Z,15.40
2018-04-14T20:02:35.999Z,15.40
2018-04-14T20:05:08.614Z,15.30
2018-04-14T20:07:42.276Z,15.30
2018-04-14T20:10:16.397Z,15.20
2018-04-14T20:12:50.687Z,15.20
2018-04-14T20:15:24.339Z,15.10
2018-04-14T20:17:56.853Z,15.10
2018-04-14T20:20:40.731Z,15.10
2018-04-14T20:23:14.823Z,14.90
2018-04-14T20:25:48.486Z,14.90
2018-04-14T20:28:21.221Z,14.90
2018-04-14T20:30:53.866Z,14.90
2018-04-14T20:33:26.594Z,14.90
2018-04-14T20:35:59.966Z,14.80
2018-04-14T20:38:32.780Z,14.80
2018-04-14T20:41:05.392Z,14.80
2018-04-14T20:43:37.885Z,14.80
2018-04-14T20:46:10.424Z,14.70
2018-04-14T20:48:43.485Z,14.60
2018-04-14T20:51:16.097Z,14.60
2018-04-14T20:53:48.752Z,14.50
2018-04-14T20:56:21.403Z,14.50
2018-04-14T20:58:54.033Z,14.50
2018-04-14T21:01:26.663Z,14.50
2018-04-14T21:03:59.071Z,14.50
2018-04-14T21:06:31.620Z,14.40
2018-04-14T21:09:05.099Z,14.40
2018-04-14T21:11:37.863Z,14.40
2018-04-14T21:14:12.011Z,14.40
2018-04-14T21:16:44.722Z,14.30
2018-04-14T21:19:18.052Z,14.30
2018-04-14T21:21:50.626Z,14.30
2018-04-14T21:24:23.150Z,14.30
2018-04-14T21:26:56.475Z,14.20
2018-04-14T21:29:29.309Z,14.20
2018-04-14T21:32:01.741Z,14.20
2018-04-14T21:34:34.261Z,14.20
2018-04-14T21:37:06.847Z,14.20
2018-04-14T21:39:39.224Z,14.10
2018-04-14T21:42:11.846Z,14.10
2018-04-14T21:44:44.365Z,14.00
2018-04-14T21:47:17.071Z,14.00
2018-04-14T21:49:50.278Z,13.90
2018-04-14T21:52:22.929Z,13.90
2018-04-14T21:54:55.347Z,13.80
2018-04-14T21:57:27.958Z,13.80
2018-04-14T22:00:00.612Z,13.70
2018-04-14T22:02:33.131Z,13.70
2018-04-14T22:05:05.830Z,13.70
2018-04-14T22:07:39.275Z,13.60
2018-04-14T22:10:12.715Z,13.50
2018-04-14T22:12:45.628Z,13.50
2018-04-14T22:15:18.055Z,13.50
2018-04-14T22:17:50.623Z,13.40
2018-04-14T22:20:23.167Z,13.40
2018-04-14T22:22:56.611Z,13.30
2018-04-14T22:25:29.988Z,13.30
2018-04-14T22:28:03.408Z,13.30
2018-04-14T22:30:35.806Z,13.20
2018-04-14T22:33:08.441Z,13.10
2018-04-14T22:35:41.847Z,13.10
2018-04-14T22:38:15.285Z,13.00
2018-04-14T22:40:49.469Z,12.90
2018-04-14T22:43:22.177Z,12.90
2018-04-14T22:45:54.612Z,12.80
2018-04-14T22:48:26.992Z,12.80
2018-04-14T22:50:59.329Z,12.70
2018-04-14T22:53:32.629Z,12.60
2018-04-14T22:56:06.148Z,12.50
2018-04-14T22:58:38.883Z,12.50
2018-04-14T23:01:11.394Z,12.50
2018-04-14T23:03:43.947Z,12.40
2018-04-14T23:06:17.548Z,12.40
2018-04-14T23:08:50.155Z,12.30
2018-04-14T23:11:23.529Z,12.20
2018-04-14T23:13:56.252Z,12.10
2018-04-14T23:16:28.946Z,12.00
2018-04-14T23:19:02.519Z,11.90
2018-04-14T23:21:35.283Z,11.90
2018-04-14T23:24:07.933Z,11.80
2018-04-14T23:26:40.587Z,11.80
2018-04-14T23:29:13.054Z,11.70
2018-04-14T23:31:45.638Z,11.70
2018-04-14T23:34:18.116Z,11.60
2018-04-14T23:36:51.323Z,11.50
2018-04-14T23:39:24.121Z,11.50
2018-04-14T23:41:57.640Z,11.50
2018-04-14T23:44:30.209Z,11.40
2018-04-14T23:47:02.582Z,11.40
2018-04-14T23:49:35.041Z,11.40
2018-04-14T23:52:09.123Z,11.30
2018-04-14T23:54:41.882Z,11.20
2018-04-14T23:57:14.320Z,11.30
2018-04-14T23:59:47.515Z,11.10
